createdAt,value
2017-11-04T00:00:12.260Z,52.07
2017-11-04T00:02:39.148Z,60.03
2017-11-04T00:05:05.725Z,64.73
2017-11-04T00:07:32.501Z,58.93
2017-11-04T00:09:59.178Z,59.50
2017-11-04T00:12:25.860Z,55.23
2017-11-04T00:14:52.764Z,64.23
2017-11-04T00:17:19.450Z,63.73
2017-11-04T00:19:46.092Z,65.40
2017-11-04T00:22:12.724Z,63.37
2017-11-04T00:24:39.335Z,55.60
2017-11-04T00:27:06.019Z,54.30
2017-11-04T00:29:32.642Z,57.90
2017-11-04T00:31:59.316Z,54.70
2017-11-04T00:34:25.886Z,52.97
2017-11-04T00:36:52.518Z,50.13
2017-11-04T00:39:19.222Z,64.53
2017-11-04T00:41:46.055Z,71.27
2017-11-04T00:44:12.626Z,71.80
2017-11-04T00:46:39.224Z,74.73
2017-11-04T00:49:05.880Z,63.47
2017-11-04T00:51:32.512Z,72.00
2017-11-04T00:53:59.149Z,65.10
2017-11-04T00:56:25.740Z,65.63
2017-11-04T00:58:52.365Z,56.80
2017-11-04T01:01:18.970Z,65.73
2017-11-04T01:03:45.586Z,72.00
2017-11-04T01:06:12.204Z,65.37
2017-11-04T01:08:38.842Z,60.00
2017-11-04T01:11:05.453Z,69.17
2017-11-04T01:13:32.068Z,64.80
2017-11-04T01:15:59.016Z,75.75
2017-11-04T01:18:25.656Z,65.90
2017-11-04T01:20:52.317Z,74.73
2017-11-04T01:23:18.892Z,69.47
2017-11-04T01:25:45.782Z,60.70
2017-11-04T01:28:12.480Z,62.35
2017-11-04T01:30:39.104Z,66.83
2017-11-04T01:33:05.774Z,70.27
2017-11-04T01:35:32.370Z,71.70
2017-11-04T01:37:59.037Z,65.00
2017-11-04T01:40:25.634Z,68.17
2017-11-04T01:42:52.270Z,68.90
2017-11-04T01:45:18.877Z,71.87
2017-11-04T01:47:45.498Z,84.17
2017-11-04T01:50:12.118Z,67.20
2017-11-04T01:52:38.719Z,78.10
2017-11-04T01:55:05.377Z,73.47
2017-11-04T01:57:32.016Z,80.63
2017-11-04T01:59:58.636Z,75.70
2017-11-04T02:02:25.243Z,74.13
2017-11-04T02:04:51.854Z,75.20
2017-11-04T02:07:18.441Z,71.90
2017-11-04T02:09:45.135Z,67.60
2017-11-04T02:12:11.905Z,76.43
2017-11-04T02:14:38.904Z,70.00
2017-11-04T02:17:05.511Z,60.93
2017-11-04T02:19:32.163Z,61.70
2017-11-04T02:21:58.758Z,74.03
2017-11-04T02:24:25.376Z,66.60
2017-11-04T02:26:52.005Z,67.17
2017-11-04T02:29:18.632Z,78.10
2017-11-04T02:31:45.250Z,64.50
2017-11-04T02:34:11.838Z,57.87
2017-11-04T02:36:38.628Z,59.90
2017-11-04T02:39:05.213Z,57.90
2017-11-04T02:41:31.833Z,62.47
2017-11-04T02:43:58.465Z,60.53
2017-11-04T02:46:25.055Z,60.83
2017-11-04T02:48:51.680Z,62.87
2017-11-04T02:51:18.276Z,64.23
2017-11-04T02:53:44.920Z,61.47
2017-11-04T02:56:11.505Z,59.23
2017-11-04T02:58:38.084Z,63.67
2017-11-04T03:01:04.713Z,61.70
2017-11-04T03:03:31.321Z,60.37
2017-11-04T03:05:57.909Z,62.20
2017-11-04T03:08:24.550Z,60.20
2017-11-04T03:10:51.164Z,64.97
2017-11-04T03:13:17.898Z,63.80
2017-11-04T03:15:44.543Z,62.37
2017-11-04T03:18:11.185Z,66.03
2017-11-04T03:20:37.811Z,64.33
2017-11-04T03:23:04.507Z,67.50
2017-11-04T03:25:31.098Z,56.67
2017-11-04T03:27:58.004Z,59.17
2017-11-04T03:30:24.626Z,59.10
2017-11-04T03:32:51.289Z,58.33
2017-11-04T03:35:17.973Z,63.97
2017-11-04T03:37:44.710Z,56.87
2017-11-04T03:40:11.323Z,61.90
2017-11-04T03:42:37.955Z,62.20
2017-11-04T03:45:04.562Z,78.03
2017-11-04T03:47:31.161Z,64.23
2017-11-04T03:49:57.825Z,67.37
2017-11-04T03:52:24.463Z,63.00
2017-11-04T03:54:51.372Z,57.73
2017-11-04T03:57:18.024Z,57.73
2017-11-04T03:59:44.769Z,55.13
2017-11-04T04:02:11.395Z,58.50
2017-11-04T04:04:38.071Z,56.47
2017-11-04T04:07:04.805Z,57.37
2017-11-04T04:09:31.643Z,49.80
2017-11-04T04:11:58.243Z,58.33
2017-11-04T04:14:24.873Z,55.80
2017-11-04T04:16:51.482Z,58.27
2017-11-04T04:19:18.085Z,60.10
2017-11-04T04:21:44.687Z,59.87
2017-11-04T04:24:11.279Z,53.63
2017-11-04T04:26:37.895Z,57.37
2017-11-04T04:29:04.519Z,65.77
2017-11-04T04:31:31.163Z,66.53
2017-11-04T04:33:57.823Z,63.03
2017-11-04T04:36:24.417Z,57.40
2017-11-04T04:38:51.029Z,57.00
2017-11-04T04:41:17.642Z,66.10
2017-11-04T04:43:44.295Z,53.10
2017-11-04T04:46:10.892Z,54.27
2017-11-04T04:48:37.484Z,51.93
2017-11-04T04:51:04.258Z,60.80
2017-11-04T04:53:30.892Z,52.37
2017-11-04T04:55:57.497Z,54.43
2017-11-04T04:58:24.120Z,48.17
2017-11-04T05:00:50.750Z,55.20
2017-11-04T05:03:17.372Z,56.60
2017-11-04T05:05:43.967Z,52.33
2017-11-04T05:08:10.567Z,52.37
2017-11-04T05:10:37.168Z,51.63
2017-11-04T05:13:03.907Z,45.93
2017-11-04T05:15:30.519Z,49.00
2017-11-04T05:17:57.401Z,45.93
2017-11-04T05:20:24.022Z,51.03
2017-11-04T05:22:51.355Z,57.60
2017-11-04T05:25:17.967Z,50.67
2017-11-04T05:27:44.596Z,50.07
2017-11-04T05:30:11.210Z,48.33
2017-11-04T05:32:37.796Z,43.47
2017-11-04T05:35:04.411Z,52.50
2017-11-04T05:37:31.049Z,47.87
2017-11-04T05:39:57.653Z,44.20
2017-11-04T05:42:24.320Z,50.57
2017-11-04T05:44:51.296Z,50.23
2017-11-04T05:47:17.884Z,46.73
2017-11-04T05:49:44.595Z,42.03
2017-11-04T05:52:17.765Z,45.90
2017-11-04T05:54:44.525Z,51.80
2017-11-04T05:57:11.446Z,54.70
2017-11-04T05:59:38.370Z,52.17
2017-11-04T06:02:04.966Z,57.37
2017-11-04T06:04:32.022Z,48.70
2017-11-04T06:06:58.627Z,48.00
2017-11-04T06:09:25.489Z,52.23
2017-11-04T06:11:52.104Z,53.60
2017-11-04T06:14:18.704Z,52.00
2017-11-04T06:16:45.545Z,45.90
2017-11-04T06:19:12.412Z,54.57
2017-11-04T06:21:39.132Z,49.90
2017-11-04T06:24:06.017Z,42.70
2017-11-04T06:26:32.723Z,47.87
2017-11-04T06:28:59.339Z,52.73
2017-11-04T06:31:26.256Z,50.97
2017-11-04T06:33:52.877Z,50.30
2017-11-04T06:36:19.473Z,47.60
2017-11-04T06:38:46.096Z,51.83
2017-11-04T06:41:12.731Z,45.13
2017-11-04T06:43:39.367Z,46.23
2017-11-04T06:46:05.947Z,39.80
2017-11-04T06:48:32.561Z,50.90
2017-11-04T06:50:59.311Z,41.03
2017-11-04T06:53:26.620Z,43.23
2017-11-04T06:55:53.348Z,42.57
2017-11-04T06:58:19.925Z,46.00
2017-11-04T07:00:46.581Z,34.47
2017-11-04T07:03:13.192Z,40.10
2017-11-04T07:05:39.793Z,43.10
2017-11-04T07:08:06.507Z,38.10
2017-11-04T07:10:33.313Z,51.70
2017-11-04T07:12:59.955Z,41.20
2017-11-04T07:15:26.577Z,38.83
2017-11-04T07:17:53.222Z,43.70
2017-11-04T07:20:19.966Z,36.90
2017-11-04T07:22:46.613Z,37.30
2017-11-04T07:25:13.193Z,52.80
2017-11-04T07:27:39.801Z,37.10
2017-11-04T07:30:06.396Z,41.60
2017-11-04T07:32:33.001Z,43.13
2017-11-04T07:34:59.636Z,47.03
2017-11-04T07:37:26.248Z,38.90
2017-11-04T07:39:52.893Z,47.07
2017-11-04T07:42:19.488Z,42.67
2017-11-04T07:44:46.125Z,42.90
2017-11-04T07:47:12.771Z,38.13
2017-11-04T07:49:39.350Z,51.63
2017-11-04T07:52:07.785Z,37.67
2017-11-04T07:54:34.436Z,46.63
2017-11-04T07:57:01.053Z,39.70
2017-11-04T07:59:27.711Z,47.87
2017-11-04T08:01:54.306Z,45.83
2017-11-04T08:04:21.579Z,43.27
2017-11-04T08:06:48.174Z,45.10
2017-11-04T08:09:14.803Z,43.07
2017-11-04T08:11:41.391Z,43.20
2017-11-04T08:14:08.012Z,44.10
2017-11-04T08:16:34.608Z,49.10
2017-11-04T08:19:01.203Z,48.80
2017-11-04T08:21:27.812Z,39.37
2017-11-04T08:23:54.598Z,39.03
2017-11-04T08:26:21.315Z,41.63
2017-11-04T08:28:47.948Z,47.67
2017-11-04T08:31:14.552Z,55.80
2017-11-04T08:33:41.243Z,52.40
2017-11-04T08:36:07.845Z,47.23
2017-11-04T08:38:34.562Z,46.87
2017-11-04T08:41:01.457Z,46.00
2017-11-04T08:43:28.083Z,51.53
2017-11-04T08:45:54.672Z,57.20
2017-11-04T08:48:21.605Z,72.93
2017-11-04T08:50:48.369Z,53.17
2017-11-04T08:53:16.573Z,49.77
2017-11-04T08:55:44.988Z,46.00
2017-11-04T08:58:11.592Z,51.90
2017-11-04T09:00:38.545Z,45.37
2017-11-04T09:03:06.033Z,54.57
2017-11-04T09:05:32.668Z,45.47
2017-11-04T09:08:00.395Z,51.67
2017-11-04T09:10:27.029Z,46.80
2017-11-04T09:12:54.288Z,48.77
2017-11-04T09:15:20.915Z,50.60
2017-11-04T09:17:47.580Z,51.20
2017-11-04T09:20:14.224Z,43.50
2017-11-04T09:22:40.913Z,47.93
2017-11-04T09:25:07.499Z,56.80
2017-11-04T09:27:34.111Z,52.43
2017-11-04T09:30:00.736Z,45.27
2017-11-04T09:32:27.370Z,47.03
2017-11-04T09:34:54.093Z,61.27
2017-11-04T09:37:20.706Z,48.63
2017-11-04T09:39:47.306Z,44.10
2017-11-04T09:42:13.907Z,51.47
2017-11-04T09:44:40.546Z,44.80
2017-11-04T09:47:07.123Z,45.77
2017-11-04T09:49:33.752Z,50.13
2017-11-04T09:52:00.428Z,46.70
2017-11-04T09:54:27.038Z,57.63
2017-11-04T09:56:53.698Z,64.73
2017-11-04T09:59:20.334Z,44.80
2017-11-04T10:01:47.008Z,46.23
2017-11-04T10:04:13.644Z,46.00
2017-11-04T10:06:40.322Z,46.57
2017-11-04T10:09:06.938Z,49.90
2017-11-04T10:11:33.539Z,51.53
2017-11-04T10:14:00.177Z,55.50
2017-11-04T10:16:26.826Z,42.87
2017-11-04T10:18:53.452Z,54.33
2017-11-04T10:21:20.140Z,51.07
2017-11-04T10:23:46.813Z,41.07
2017-11-04T10:26:13.397Z,59.47
2017-11-04T10:28:40.152Z,46.20
2017-11-04T10:31:06.952Z,43.63
2017-11-04T10:33:33.564Z,47.20
2017-11-04T10:36:00.187Z,43.60
2017-11-04T10:38:26.807Z,43.13
2017-11-04T10:40:53.767Z,45.97
2017-11-04T10:43:20.400Z,54.07
2017-11-04T10:45:47.010Z,52.80
2017-11-04T10:48:13.657Z,47.40
2017-11-04T10:50:40.261Z,45.70
2017-11-04T10:53:07.147Z,42.93
2017-11-04T10:55:33.805Z,49.00
2017-11-04T10:58:00.805Z,44.57
2017-11-04T11:00:27.426Z,45.80
2017-11-04T11:02:54.084Z,47.23
2017-11-04T11:05:21.039Z,51.70
2017-11-04T11:07:47.676Z,46.70
2017-11-04T11:10:14.297Z,48.00
2017-11-04T11:12:41.059Z,42.07
2017-11-04T11:15:07.675Z,45.90
2017-11-04T11:17:34.472Z,58.93
2017-11-04T11:20:01.080Z,46.43
2017-11-04T11:22:27.706Z,43.63
2017-11-04T11:24:54.339Z,50.07
2017-11-04T11:27:20.949Z,43.13
2017-11-04T11:29:47.573Z,47.27
2017-11-04T11:32:14.167Z,43.27
2017-11-04T11:34:40.821Z,43.53
2017-11-04T11:37:07.485Z,42.13
2017-11-04T11:39:34.084Z,51.90
2017-11-04T11:42:00.729Z,46.30
2017-11-04T11:44:28.065Z,47.90
2017-11-04T11:46:55.736Z,49.00
2017-11-04T11:49:22.325Z,48.50
2017-11-04T11:51:48.965Z,53.77
2017-11-04T11:54:15.609Z,46.27
2017-11-04T11:56:42.250Z,48.20
2017-11-04T11:59:08.889Z,51.20
2017-11-04T12:01:36.190Z,56.53
2017-11-04T12:04:02.825Z,49.13
2017-11-04T12:06:29.494Z,54.20
2017-11-04T12:08:56.403Z,60.23
2017-11-04T12:11:23.303Z,51.70
2017-11-04T12:13:49.986Z,51.97
2017-11-04T12:16:16.607Z,62.37
2017-11-04T12:18:43.283Z,59.77
2017-11-04T12:21:09.891Z,57.47
2017-11-04T12:23:38.448Z,57.10
2017-11-04T12:26:05.727Z,67.20
2017-11-04T12:28:32.944Z,60.88
2017-11-04T12:30:59.526Z,70.63
2017-11-04T12:33:26.165Z,61.97
2017-11-04T12:35:52.786Z,64.17
2017-11-04T12:38:19.371Z,72.63
2017-11-04T12:40:46.030Z,68.40
2017-11-04T12:43:28.034Z,73.00
2017-11-04T12:45:56.126Z,74.47
2017-11-04T12:48:22.743Z,78.03
2017-11-04T12:50:49.673Z,74.80
2017-11-04T12:53:16.323Z,83.13
2017-11-04T12:55:42.934Z,76.60
2017-11-04T12:58:09.566Z,87.17
2017-11-04T13:00:36.187Z,86.73
2017-11-04T13:03:02.816Z,86.10
2017-11-04T13:05:29.473Z,75.13
2017-11-04T13:07:56.336Z,73.67
2017-11-04T13:10:23.347Z,74.97
2017-11-04T13:12:49.939Z,83.47
2017-11-04T13:15:16.714Z,79.53
2017-11-04T13:17:43.499Z,82.43
2017-11-04T13:20:10.119Z,84.63
2017-11-04T13:22:36.720Z,80.97
2017-11-04T13:25:03.361Z,82.50
2017-11-04T13:27:29.971Z,78.27
2017-11-04T13:29:56.697Z,85.17
2017-11-04T13:32:23.333Z,79.13
2017-11-04T13:34:50.115Z,87.90
2017-11-04T13:37:17.017Z,88.77
2017-11-04T13:39:43.657Z,81.63
2017-11-04T13:42:10.639Z,96.37
2017-11-04T13:44:37.440Z,82.03
2017-11-04T13:47:04.082Z,79.93
2017-11-04T13:49:30.719Z,82.33
2017-11-04T13:51:57.772Z,82.13
2017-11-04T13:54:24.376Z,80.80
2017-11-04T13:56:51.181Z,95.53
2017-11-04T13:59:17.813Z,86.93
2017-11-04T14:01:44.797Z,91.13
2017-11-04T14:04:11.470Z,83.73
2017-11-04T14:06:38.052Z,92.03
2017-11-04T14:09:14.489Z,90.27
2017-11-04T14:11:41.173Z,99.80
2017-11-04T14:14:07.801Z,89.30
2017-11-04T14:16:34.432Z,91.27
2017-11-04T14:19:01.044Z,88.77
2017-11-04T14:21:27.689Z,87.87
2017-11-04T14:23:54.307Z,79.47
2017-11-04T14:26:20.909Z,90.07
2017-11-04T14:28:47.575Z,87.13
2017-11-04T14:31:14.202Z,84.57
2017-11-04T14:33:40.900Z,82.17
2017-11-04T14:36:07.709Z,87.23
2017-11-04T14:38:34.318Z,83.20
2017-11-04T14:41:00.922Z,87.37
2017-11-04T14:43:27.517Z,86.13
2017-11-04T14:45:54.222Z,79.33
2017-11-04T14:48:20.840Z,85.67
2017-11-04T14:50:47.434Z,83.53
2017-11-04T14:53:14.052Z,82.83
2017-11-04T14:55:40.805Z,86.00
2017-11-04T14:58:07.859Z,84.30
2017-11-04T15:00:35.465Z,88.67
2017-11-04T15:03:02.124Z,92.37
2017-11-04T15:05:28.848Z,77.17
2017-11-04T15:07:55.487Z,85.63
2017-11-04T15:10:22.244Z,83.43
2017-11-04T15:12:48.874Z,82.23
2017-11-04T15:15:15.515Z,89.57
2017-11-04T15:17:42.152Z,90.93
2017-11-04T15:20:08.794Z,84.73
2017-11-04T15:22:35.402Z,75.57
2017-11-04T15:25:02.028Z,77.13
2017-11-04T15:27:28.673Z,87.63
2017-11-04T15:29:55.284Z,86.33
2017-11-04T15:32:21.914Z,79.93
2017-11-04T15:34:48.528Z,85.27
2017-11-04T15:37:15.167Z,79.27
2017-11-04T15:39:41.904Z,83.73
2017-11-04T15:42:08.856Z,83.80
2017-11-04T15:44:35.608Z,82.57
2017-11-04T15:47:02.238Z,82.63
2017-11-04T15:49:28.886Z,80.87
2017-11-04T15:51:55.489Z,76.37
2017-11-04T15:54:22.145Z,78.47
2017-11-04T15:56:49.059Z,84.37
2017-11-04T15:59:15.664Z,86.60
2017-11-04T16:01:42.311Z,89.17
2017-11-04T16:04:08.942Z,87.37
2017-11-04T16:06:35.624Z,90.23
2017-11-04T16:09:02.271Z,86.40
2017-11-04T16:11:28.909Z,78.33
2017-11-04T16:13:55.491Z,86.47
2017-11-04T16:16:22.115Z,88.80
2017-11-04T16:18:48.730Z,85.63
2017-11-04T16:21:15.353Z,89.93
2017-11-04T16:23:41.938Z,87.27
2017-11-04T16:26:08.596Z,92.60
2017-11-04T16:28:35.206Z,83.57
2017-11-04T16:31:01.978Z,81.60
2017-11-04T16:33:28.786Z,88.47
2017-11-04T16:35:55.398Z,90.57
2017-11-04T16:38:22.646Z,93.40
2017-11-04T16:40:49.563Z,87.33
2017-11-04T16:43:16.152Z,86.17
2017-11-04T16:45:42.781Z,87.20
2017-11-04T16:48:09.408Z,94.33
2017-11-04T16:50:36.167Z,87.63
2017-11-04T16:53:02.836Z,108.83
2017-11-04T16:55:29.450Z,90.60
2017-11-04T16:57:56.121Z,83.47
2017-11-04T17:00:22.776Z,93.20
2017-11-04T17:02:49.394Z,86.13
2017-11-04T17:05:16.090Z,91.70
2017-11-04T17:07:42.727Z,93.63
2017-11-04T17:10:09.384Z,94.43
2017-11-04T17:12:36.047Z,93.20
2017-11-04T17:15:02.664Z,91.83
2017-11-04T17:17:29.286Z,91.50
2017-11-04T17:19:56.218Z,88.63
2017-11-04T17:22:22.952Z,94.70
2017-11-04T17:24:50.766Z,90.33
2017-11-04T17:27:17.442Z,103.20
2017-11-04T17:29:44.354Z,106.60
2017-11-04T17:32:11.020Z,106.93
2017-11-04T17:34:37.682Z,92.40
2017-11-04T17:37:04.371Z,94.80
2017-11-04T17:39:31.433Z,95.33
2017-11-04T17:41:59.681Z,98.40
2017-11-04T17:44:26.446Z,90.53
2017-11-04T17:46:53.217Z,82.80
2017-11-04T17:49:20.106Z,83.07
2017-11-04T17:51:48.396Z,90.40
2017-11-04T17:54:15.409Z,82.50
2017-11-04T17:56:42.449Z,83.97
2017-11-04T17:59:09.154Z,85.87
2017-11-04T18:01:36.117Z,83.23
2017-11-04T18:04:03.052Z,82.90
2017-11-04T18:06:29.807Z,81.00
2017-11-04T18:08:58.505Z,84.17
2017-11-04T18:14:01.693Z,75.17
2017-11-04T18:16:28.328Z,76.93
2017-11-04T18:18:55.079Z,76.33
2017-11-04T18:21:21.708Z,90.43
2017-11-04T18:23:48.325Z,81.63
2017-11-04T18:26:15.001Z,85.50
2017-11-04T18:28:41.611Z,84.97
2017-11-04T18:31:08.337Z,81.23
2017-11-04T18:33:35.489Z,82.25
2017-11-04T18:36:04.540Z,88.53
2017-11-04T18:38:31.210Z,82.70
2017-11-04T18:40:57.811Z,91.57
2017-11-04T18:43:24.442Z,74.80
2017-11-04T18:45:51.049Z,91.20
2017-11-04T18:48:17.694Z,79.20
2017-11-04T18:50:44.578Z,79.30
2017-11-04T18:53:11.200Z,87.63
2017-11-04T18:55:38.537Z,77.10
2017-11-04T18:58:05.133Z,83.27
2017-11-04T19:00:31.857Z,86.73
2017-11-04T19:02:58.468Z,83.57
2017-11-04T19:05:25.169Z,80.90
2017-11-04T19:07:52.025Z,76.43
2017-11-04T19:10:18.642Z,82.70
2017-11-04T19:12:45.780Z,78.47
2017-11-04T19:15:12.496Z,85.10
2017-11-04T19:17:39.098Z,99.87
2017-11-04T19:20:05.755Z,92.03
2017-11-04T19:22:32.379Z,101.87
2017-11-04T19:24:59.297Z,94.73
2017-11-04T19:27:25.910Z,89.80
2017-11-04T19:29:52.528Z,91.93
2017-11-04T19:32:19.157Z,94.27
2017-11-04T19:34:45.769Z,86.03
2017-11-04T19:37:12.544Z,97.43
2017-11-04T19:39:40.528Z,72.73
2017-11-04T19:42:07.248Z,76.33
2017-11-04T19:44:36.244Z,80.27
2017-11-04T19:47:02.972Z,89.00
2017-11-04T19:49:29.639Z,94.93
2017-11-04T19:51:56.577Z,82.10
2017-11-04T19:54:23.573Z,95.60
2017-11-04T19:56:50.215Z,83.93
2017-11-04T19:59:17.828Z,92.90
2017-11-04T20:01:44.701Z,80.77
2017-11-04T20:04:11.436Z,87.37
2017-11-04T20:06:38.203Z,83.30
2017-11-04T20:09:04.899Z,67.17
2017-11-04T20:11:31.716Z,68.43
2017-11-04T20:13:58.349Z,70.07
2017-11-04T20:16:25.008Z,71.83
2017-11-04T20:18:51.616Z,64.60
2017-11-04T20:21:18.506Z,68.00
2017-11-04T20:23:45.138Z,67.30
2017-11-04T20:26:12.739Z,62.37
2017-11-04T20:28:39.396Z,63.30
2017-11-04T20:31:06.141Z,71.43
2017-11-04T20:33:32.757Z,61.47
2017-11-04T20:35:59.404Z,63.53
2017-11-04T20:38:26.314Z,65.33
2017-11-04T20:40:53.039Z,65.03
2017-11-04T20:43:20.207Z,66.70
2017-11-04T20:45:48.068Z,68.00
2017-11-04T20:48:18.664Z,63.77
2017-11-04T20:50:45.374Z,60.10
2017-11-04T20:53:12.595Z,66.20
2017-11-04T20:55:39.257Z,74.53
2017-11-04T20:58:06.030Z,59.63
2017-11-04T21:00:32.681Z,57.60
2017-11-04T21:02:59.620Z,63.13
2017-11-04T21:05:26.391Z,68.73
2017-11-04T21:07:53.032Z,63.80
2017-11-04T21:10:19.919Z,61.83
2017-11-04T21:12:47.840Z,58.07
2017-11-04T21:15:14.785Z,67.10
2017-11-04T21:17:41.701Z,56.80
2017-11-04T21:20:08.600Z,55.80
2017-11-04T21:22:36.490Z,57.40
2017-11-04T21:25:03.191Z,58.47
2017-11-04T21:27:29.921Z,63.93
2017-11-04T21:29:56.631Z,61.57
2017-11-04T21:32:23.436Z,55.37
2017-11-04T21:34:50.136Z,63.53
2017-11-04T21:37:16.932Z,58.47
2017-11-04T21:39:44.021Z,63.23
2017-11-04T21:42:10.882Z,57.13
2017-11-04T21:44:37.526Z,55.80
2017-11-04T21:47:04.415Z,51.47
2017-11-04T21:49:31.154Z,53.83
2017-11-04T21:51:57.845Z,56.10
2017-11-04T21:54:24.616Z,66.43
2017-11-04T21:56:51.432Z,50.60
2017-11-04T21:59:19.589Z,54.17
2017-11-04T22:01:46.223Z,52.93
2017-11-04T22:04:13.007Z,53.37
2017-11-04T22:06:39.613Z,52.67
2017-11-04T22:09:06.429Z,53.07
2017-11-04T22:11:33.151Z,51.80
2017-11-04T22:13:59.745Z,51.53
2017-11-04T22:16:27.723Z,53.27
2017-11-04T22:18:54.361Z,55.10
2017-11-04T22:21:20.968Z,55.40
2017-11-04T22:23:47.598Z,54.90
2017-11-04T22:26:14.625Z,57.17
2017-11-04T22:28:41.291Z,66.83
2017-11-04T22:31:07.901Z,66.10
2017-11-04T22:33:34.549Z,66.97
2017-11-04T22:36:01.175Z,79.10
2017-11-04T22:38:27.798Z,78.70
2017-11-04T22:40:54.512Z,82.33
2017-11-04T22:43:21.140Z,87.43
2017-11-04T22:45:47.790Z,82.27
2017-11-04T22:48:14.389Z,85.83
2017-11-04T22:50:41.006Z,73.50
2017-11-04T22:53:07.682Z,79.50
2017-11-04T22:55:34.548Z,73.60
2017-11-04T22:58:01.559Z,74.80
2017-11-04T23:00:28.231Z,88.40
2017-11-04T23:02:55.136Z,77.50
2017-11-04T23:05:21.756Z,75.20
2017-11-04T23:07:48.350Z,75.63
2017-11-04T23:10:14.946Z,75.87
2017-11-04T23:12:41.605Z,72.53
2017-11-04T23:15:08.242Z,75.30
2017-11-04T23:17:35.098Z,68.63
2017-11-04T23:20:01.680Z,74.07
2017-11-04T23:22:28.360Z,75.60
2017-11-04T23:24:54.979Z,76.77
2017-11-04T23:27:22.025Z,72.43
2017-11-04T23:29:48.658Z,67.03
2017-11-04T23:32:15.282Z,67.10
2017-11-04T23:34:41.893Z,70.43
2017-11-04T23:37:08.486Z,76.03
2017-11-04T23:39:35.279Z,73.30
2017-11-04T23:42:01.899Z,75.23
2017-11-04T23:44:28.507Z,68.50
2017-11-04T23:46:55.134Z,70.90
2017-11-04T23:49:21.761Z,64.67
2017-11-04T23:51:48.383Z,68.57
2017-11-04T23:54:15.079Z,69.50
2017-11-04T23:56:41.758Z,73.30
2017-11-04T23:59:08.525Z,84.60
